sensor_id;sensor_type;location;lat;lon;timestamp;temperature;humidity
9403;DHT22;4741;49.834;10.740;2023-05-16T00:02:09;10.50;99.90
9403;DHT22;4741;49.834;10.740;2023-05-16T00:04:36;11.50;99.90
9403;DHT22;4741;49.834;10.740;2023-05-16T00:07:03;10.50;99.90
9403;DHT22;4741;49.834;10.740;2023-05-16T00:11:57;10.40;99.90
9403;DHT22;4741;49.834;10.740;2023-05-16T00:16:52;10.90;99.90
9403;DHT22;4741;49.834;10.740;2023-05-16T00:21:46;10.10;99.90
9403;DHT22;4741;49.834;10.740;2023-05-16T00:24:12;9.20;99.90
9403;DHT22;4741;49.834;10.740;2023-05-16T00:26:39;9.70;99.90
9403;DHT22;4741;49.834;10.740;2023-05-16T00:29:06;11.60;99.90
9403;DHT22;4741;49.834;10.740;2023-05-16T00:31:32;9.30;99.90
9403;DHT22;4741;49.834;10.740;2023-05-16T00:33:59;9.60;99.90
9403;DHT22;4741;49.834;10.740;2023-05-16T00:36:26;9.60;99.90
9403;DHT22;4741;49.834;10.740;2023-05-16T00:38:52;9.90;99.90
9403;DHT22;4741;49.834;10.740;2023-05-16T00:41:19;9.60;99.90
9403;DHT22;4741;49.834;10.740;2023-05-16T00:43:47;9.40;99.90
9403;DHT22;4741;49.834;10.740;2023-05-16T00:46:14;9.60;99.90
9403;DHT22;4741;49.834;10.740;2023-05-16T00:48:40;12.00;99.90
9403;DHT22;4741;49.834;10.740;2023-05-16T00:51:07;9.30;99.90
9403;DHT22;4741;49.834;10.740;2023-05-16T00:53:35;9.40;99.90
9403;DHT22;4741;49.834;10.740;2023-05-16T00:56:02;9.20;99.90
9403;DHT22;4741;49.834;10.740;2023-05-16T00:58:29;10.00;99.90
9403;DHT22;4741;49.834;10.740;2023-05-16T01:00:56;9.60;99.90
9403;DHT22;4741;49.834;10.740;2023-05-16T01:03:22;11.40;99.90
9403;DHT22;4741;49.834;10.740;2023-05-16T01:05:49;11.50;99.90
9403;DHT22;4741;49.834;10.740;2023-05-16T01:08:16;9.80;99.90
9403;DHT22;4741;49.834;10.740;2023-05-16T01:10:45;9.50;99.90
9403;DHT22;4741;49.834;10.740;2023-05-16T01:13:21;10.70;99.90
9403;DHT22;4741;49.834;10.740;2023-05-16T01:15:53;9.70;99.90
9403;DHT22;4741;49.834;10.740;2023-05-16T01:18:30;9.50;99.90
9403;DHT22;4741;49.834;10.740;2023-05-16T01:21:03;9.90;99.90
9403;DHT22;4741;49.834;10.740;2023-05-16T01:26:17;9.90;99.90
9403;DHT22;4741;49.834;10.740;2023-05-16T01:28:44;9.80;99.90
9403;DHT22;4741;49.834;10.740;2023-05-16T01:31:12;9.80;99.90
9403;DHT22;4741;49.834;10.740;2023-05-16T01:33:39;9.80;99.90
9403;DHT22;4741;49.834;10.740;2023-05-16T01:38:51;9.80;99.90
9403;DHT22;4741;49.834;10.740;2023-05-16T01:43:49;9.70;99.90
9403;DHT22;4741;49.834;10.740;2023-05-16T01:46:20;9.60;99.90
9403;DHT22;4741;49.834;10.740;2023-05-16T01:51:17;9.20;99.90
9403;DHT22;4741;49.834;10.740;2023-05-16T01:53:43;9.10;99.90
9403;DHT22;4741;49.834;10.740;2023-05-16T01:56:12;9.10;99.90
9403;DHT22;4741;49.834;10.740;2023-05-16T01:58:40;9.30;99.90
9403;DHT22;4741;49.834;10.740;2023-05-16T02:01:08;9.30;99.90
9403;DHT22;4741;49.834;10.740;2023-05-16T02:03:35;9.80;99.90
9403;DHT22;4741;49.834;10.740;2023-05-16T02:06:02;9.40;99.90
9403;DHT22;4741;49.834;10.740;2023-05-16T02:08:29;9.40;99.90
9403;DHT22;4741;49.834;10.740;2023-05-16T02:10:56;9.40;99.90
9403;DHT22;4741;49.834;10.740;2023-05-16T02:13:23;9.40;99.90
9403;DHT22;4741;49.834;10.740;2023-05-16T02:15:50;9.40;99.90
9403;DHT22;4741;49.834;10.740;2023-05-16T02:18:16;9.40;99.90
9403;DHT22;4741;49.834;10.740;2023-05-16T02:20:44;9.30;99.90
9403;DHT22;4741;49.834;10.740;2023-05-16T02:23:11;9.30;99.90
9403;DHT22;4741;49.834;10.740;2023-05-16T02:25:38;9.30;99.90
9403;DHT22;4741;49.834;10.740;2023-05-16T02:28:04;10.20;99.90
9403;DHT22;4741;49.834;10.740;2023-05-16T02:30:32;9.50;99.90
9403;DHT22;4741;49.834;10.740;2023-05-16T02:32:59;9.50;99.90
9403;DHT22;4741;49.834;10.740;2023-05-16T02:35:25;9.60;99.90
9403;DHT22;4741;49.834;10.740;2023-05-16T02:37:52;9.60;99.90
9403;DHT22;4741;49.834;10.740;2023-05-16T02:40:19;9.50;99.90
9403;DHT22;4741;49.834;10.740;2023-05-16T02:42:46;9.60;99.90
9403;DHT22;4741;49.834;10.740;2023-05-16T02:45:12;9.70;99.90
9403;DHT22;4741;49.834;10.740;2023-05-16T02:47:39;9.70;99.90
9403;DHT22;4741;49.834;10.740;2023-05-16T02:50:06;9.70;99.90
9403;DHT22;4741;49.834;10.740;2023-05-16T02:52:32;9.70;99.90
9403;DHT22;4741;49.834;10.740;2023-05-16T02:54:59;9.70;99.90
9403;DHT22;4741;49.834;10.740;2023-05-16T02:57:46;9.80;99.90
9403;DHT22;4741;49.834;10.740;2023-05-16T03:00:12;9.80;99.90
9403;DHT22;4741;49.834;10.740;2023-05-16T03:02:42;9.90;99.90
9403;DHT22;4741;49.834;10.740;2023-05-16T03:05:09;9.70;99.90
9403;DHT22;4741;49.834;10.740;2023-05-16T03:07:37;9.70;99.90
9403;DHT22;4741;49.834;10.740;2023-05-16T03:10:04;9.60;99.90
9403;DHT22;4741;49.834;10.740;2023-05-16T03:12:31;9.70;99.90
9403;DHT22;4741;49.834;10.740;2023-05-16T03:14:57;9.70;99.90
9403;DHT22;4741;49.834;10.740;2023-05-16T03:17:24;9.70;99.90
9403;DHT22;4741;49.834;10.740;2023-05-16T03:19:51;9.70;99.90
9403;DHT22;4741;49.834;10.740;2023-05-16T03:22:17;9.70;99.90
9403;DHT22;4741;49.834;10.740;2023-05-16T03:24:44;9.60;99.90
9403;DHT22;4741;49.834;10.740;2023-05-16T03:27:11;9.60;99.90
9403;DHT22;4741;49.834;10.740;2023-05-16T03:29:37;9.60;99.90
9403;DHT22;4741;49.834;10.740;2023-05-16T03:32:04;9.60;99.90
9403;DHT22;4741;49.834;10.740;2023-05-16T03:34:31;9.70;99.90
9403;DHT22;4741;49.834;10.740;2023-05-16T03:36:58;9.70;99.90
9403;DHT22;4741;49.834;10.740;2023-05-16T03:39:24;9.70;99.90
9403;DHT22;4741;49.834;10.740;2023-05-16T03:41:51;9.80;99.90
9403;DHT22;4741;49.834;10.740;2023-05-16T03:44:21;9.80;99.90
9403;DHT22;4741;49.834;10.740;2023-05-16T03:46:48;9.80;99.90
9403;DHT22;4741;49.834;10.740;2023-05-16T03:49:16;9.90;99.90
9403;DHT22;4741;49.834;10.740;2023-05-16T03:51:43;9.90;99.90
9403;DHT22;4741;49.834;10.740;2023-05-16T03:54:10;9.90;99.90
9403;DHT22;4741;49.834;10.740;2023-05-16T03:56:37;9.90;99.90
9403;DHT22;4741;49.834;10.740;2023-05-16T03:59:03;9.90;99.90
9403;DHT22;4741;49.834;10.740;2023-05-16T04:01:30;9.90;99.90
9403;DHT22;4741;49.834;10.740;2023-05-16T04:03:57;9.90;99.90
9403;DHT22;4741;49.834;10.740;2023-05-16T04:06:23;9.90;99.90
9403;DHT22;4741;49.834;10.740;2023-05-16T04:08:50;9.90;99.90
9403;DHT22;4741;49.834;10.740;2023-05-16T04:11:16;9.70;99.90
9403;DHT22;4741;49.834;10.740;2023-05-16T04:13:43;9.80;99.90
9403;DHT22;4741;49.834;10.740;2023-05-16T04:16:10;9.80;99.90
9403;DHT22;4741;49.834;10.740;2023-05-16T04:18:36;9.70;99.90
9403;DHT22;4741;49.834;10.740;2023-05-16T04:21:03;9.80;99.90
9403;DHT22;4741;49.834;10.740;2023-05-16T04:23:30;9.90;99.90
9403;DHT22;4741;49.834;10.740;2023-05-16T04:25:56;9.70;99.90
9403;DHT22;4741;49.834;10.740;2023-05-16T04:28:24;9.60;99.90
9403;DHT22;4741;49.834;10.740;2023-05-16T04:30:50;9.00;99.90
9403;DHT22;4741;49.834;10.740;2023-05-16T04:35:44;10.00;99.90
9403;DHT22;4741;49.834;10.740;2023-05-16T04:38:11;9.90;99.90
9403;DHT22;4741;49.834;10.740;2023-05-16T04:40:37;10.00;99.90
9403;DHT22;4741;49.834;10.740;2023-05-16T04:45:32;10.20;99.90
9403;DHT22;4741;49.834;10.740;2023-05-16T04:48:02;9.90;99.90
9403;DHT22;4741;49.834;10.740;2023-05-16T04:50:29;10.20;99.90
9403;DHT22;4741;49.834;10.740;2023-05-16T04:52:56;9.30;99.90
9403;DHT22;4741;49.834;10.740;2023-05-16T04:55:23;10.10;99.90
9403;DHT22;4741;49.834;10.740;2023-05-16T04:57:50;10.20;99.90
9403;DHT22;4741;49.834;10.740;2023-05-16T05:00:17;9.60;99.90
9403;DHT22;4741;49.834;10.740;2023-05-16T05:02:43;10.40;99.90
9403;DHT22;4741;49.834;10.740;2023-05-16T05:05:11;10.40;99.90
9403;DHT22;4741;49.834;10.740;2023-05-16T05:07:37;11.30;99.90
9403;DHT22;4741;49.834;10.740;2023-05-16T05:10:04;10.60;99.90
9403;DHT22;4741;49.834;10.740;2023-05-16T05:12:32;10.60;99.90
9403;DHT22;4741;49.834;10.740;2023-05-16T05:14:58;11.10;99.90
9403;DHT22;4741;49.834;10.740;2023-05-16T05:17:25;10.70;99.90
9403;DHT22;4741;49.834;10.740;2023-05-16T05:19:52;10.60;99.90
9403;DHT22;4741;49.834;10.740;2023-05-16T05:22:19;11.10;99.90
9403;DHT22;4741;49.834;10.740;2023-05-16T05:24:45;10.60;99.90
9403;DHT22;4741;49.834;10.740;2023-05-16T05:29:39;11.00;99.90
9403;DHT22;4741;49.834;10.740;2023-05-16T05:32:06;11.30;99.90
9403;DHT22;4741;49.834;10.740;2023-05-16T05:37:00;11.20;99.90
9403;DHT22;4741;49.834;10.740;2023-05-16T05:39:27;11.80;99.90
9403;DHT22;4741;49.834;10.740;2023-05-16T05:41:54;11.40;99.90
9403;DHT22;4741;49.834;10.740;2023-05-16T05:44:21;11.40;99.90
9403;DHT22;4741;49.834;10.740;2023-05-16T05:46:47;11.40;99.90
9403;DHT22;4741;49.834;10.740;2023-05-16T05:49:14;11.70;99.90
9403;DHT22;4741;49.834;10.740;2023-05-16T05:54:08;11.80;99.90
9403;DHT22;4741;49.834;10.740;2023-05-16T05:56:35;12.00;99.90
9403;DHT22;4741;49.834;10.740;2023-05-16T05:59:02;12.00;99.90
9403;DHT22;4741;49.834;10.740;2023-05-16T06:01:28;12.70;99.90
9403;DHT22;4741;49.834;10.740;2023-05-16T06:03:55;12.40;99.90
9403;DHT22;4741;49.834;10.740;2023-05-16T06:06:24;12.20;99.90
9403;DHT22;4741;49.834;10.740;2023-05-16T06:08:51;12.90;99.90
9403;DHT22;4741;49.834;10.740;2023-05-16T06:11:17;12.60;99.90
9403;DHT22;4741;49.834;10.740;2023-05-16T06:13:44;13.50;99.90
9403;DHT22;4741;49.834;10.740;2023-05-16T06:21:05;12.70;99.90
9403;DHT22;4741;49.834;10.740;2023-05-16T06:23:32;13.10;99.90
9403;DHT22;4741;49.834;10.740;2023-05-16T06:25:59;13.40;99.90
9403;DHT22;4741;49.834;10.740;2023-05-16T06:28:25;13.70;99.90
9403;DHT22;4741;49.834;10.740;2023-05-16T06:30:52;13.80;99.90
9403;DHT22;4741;49.834;10.740;2023-05-16T06:33:19;14.00;99.90
9403;DHT22;4741;49.834;10.740;2023-05-16T06:35:46;13.70;99.90
9403;DHT22;4741;49.834;10.740;2023-05-16T06:38:14;14.10;99.90
9403;DHT22;4741;49.834;10.740;2023-05-16T06:40:41;13.40;99.90
9403;DHT22;4741;49.834;10.740;2023-05-16T06:43:07;12.90;99.90
9403;DHT22;4741;49.834;10.740;2023-05-16T06:45:34;13.40;99.90
9403;DHT22;4741;49.834;10.740;2023-05-16T06:48:01;13.30;99.90
9403;DHT22;4741;49.834;10.740;2023-05-16T06:50:27;14.60;99.90
9403;DHT22;4741;49.834;10.740;2023-05-16T06:52:54;14.20;99.90
9403;DHT22;4741;49.834;10.740;2023-05-16T06:55:21;14.70;99.90
9403;DHT22;4741;49.834;10.740;2023-05-16T06:57:48;12.90;99.90
9403;DHT22;4741;49.834;10.740;2023-05-16T07:00:14;15.00;99.90
9403;DHT22;4741;49.834;10.740;2023-05-16T07:02:41;14.30;99.90
9403;DHT22;4741;49.834;10.740;2023-05-16T07:05:08;16.70;99.90
9403;DHT22;4741;49.834;10.740;2023-05-16T07:07:35;15.00;99.90
9403;DHT22;4741;49.834;10.740;2023-05-16T07:10:02;15.80;99.90
9403;DHT22;4741;49.834;10.740;2023-05-16T07:12:29;15.30;99.90
9403;DHT22;4741;49.834;10.740;2023-05-16T07:17:23;15.60;99.90
9403;DHT22;4741;49.834;10.740;2023-05-16T07:19:50;15.90;99.90
9403;DHT22;4741;49.834;10.740;2023-05-16T07:22:17;16.30;99.90
9403;DHT22;4741;49.834;10.740;2023-05-16T07:24:43;16.90;99.90
9403;DHT22;4741;49.834;10.740;2023-05-16T07:27:10;16.00;99.90
9403;DHT22;4741;49.834;10.740;2023-05-16T07:29:37;16.80;99.90
9403;DHT22;4741;49.834;10.740;2023-05-16T07:32:04;16.90;99.90
9403;DHT22;4741;49.834;10.740;2023-05-16T07:34:31;16.00;99.90
9403;DHT22;4741;49.834;10.740;2023-05-16T07:36:58;17.20;99.90
9403;DHT22;4741;49.834;10.740;2023-05-16T07:39:24;16.90;99.90
9403;DHT22;4741;49.834;10.740;2023-05-16T07:41:51;16.00;99.90
9403;DHT22;4741;49.834;10.740;2023-05-16T07:44:18;16.80;99.90
9403;DHT22;4741;49.834;10.740;2023-05-16T07:46:45;16.40;99.90
9403;DHT22;4741;49.834;10.740;2023-05-16T07:49:12;14.50;99.90
9403;DHT22;4741;49.834;10.740;2023-05-16T07:51:38;15.60;99.90
9403;DHT22;4741;49.834;10.740;2023-05-16T07:54:05;15.50;99.90
9403;DHT22;4741;49.834;10.740;2023-05-16T07:56:32;15.50;99.90
9403;DHT22;4741;49.834;10.740;2023-05-16T07:58:59;16.00;99.90
9403;DHT22;4741;49.834;10.740;2023-05-16T08:01:25;16.00;99.90
9403;DHT22;4741;49.834;10.740;2023-05-16T08:03:53;16.20;99.90
9403;DHT22;4741;49.834;10.740;2023-05-16T08:06:19;16.30;99.90
9403;DHT22;4741;49.834;10.740;2023-05-16T08:08:46;15.50;99.90
9403;DHT22;4741;49.834;10.740;2023-05-16T08:11:14;15.00;99.90
9403;DHT22;4741;49.834;10.740;2023-05-16T08:13:41;15.40;99.90
9403;DHT22;4741;49.834;10.740;2023-05-16T08:16:07;16.10;99.90
9403;DHT22;4741;49.834;10.740;2023-05-16T08:18:34;16.60;99.90
9403;DHT22;4741;49.834;10.740;2023-05-16T08:21:01;16.40;99.90
9403;DHT22;4741;49.834;10.740;2023-05-16T08:23:28;16.50;99.90
9403;DHT22;4741;49.834;10.740;2023-05-16T08:25:54;16.10;99.90
9403;DHT22;4741;49.834;10.740;2023-05-16T08:28:21;17.10;99.90
9403;DHT22;4741;49.834;10.740;2023-05-16T08:30:48;16.60;99.90
9403;DHT22;4741;49.834;10.740;2023-05-16T08:33:14;17.80;99.90
9403;DHT22;4741;49.834;10.740;2023-05-16T08:35:42;17.70;99.90
9403;DHT22;4741;49.834;10.740;2023-05-16T08:38:10;17.40;99.90
9403;DHT22;4741;49.834;10.740;2023-05-16T08:40:37;17.70;99.90
9403;DHT22;4741;49.834;10.740;2023-05-16T08:43:05;17.20;99.90
9403;DHT22;4741;49.834;10.740;2023-05-16T08:45:32;17.70;99.90
9403;DHT22;4741;49.834;10.740;2023-05-16T08:47:59;15.90;99.90
9403;DHT22;4741;49.834;10.740;2023-05-16T08:50:28;17.50;99.90
9403;DHT22;4741;49.834;10.740;2023-05-16T08:52:56;16.40;99.90
9403;DHT22;4741;49.834;10.740;2023-05-16T08:55:23;16.10;99.90
9403;DHT22;4741;49.834;10.740;2023-05-16T08:57:50;17.10;99.90
9403;DHT22;4741;49.834;10.740;2023-05-16T09:00:17;16.90;99.90
9403;DHT22;4741;49.834;10.740;2023-05-16T09:02:45;16.60;99.90
9403;DHT22;4741;49.834;10.740;2023-05-16T09:05:12;17.50;99.90
9403;DHT22;4741;49.834;10.740;2023-05-16T09:07:40;17.20;99.90
9403;DHT22;4741;49.834;10.740;2023-05-16T09:10:07;18.30;99.90
9403;DHT22;4741;49.834;10.740;2023-05-16T09:12:34;17.30;99.90
9403;DHT22;4741;49.834;10.740;2023-05-16T09:17:38;17.60;99.90
9403;DHT22;4741;49.834;10.740;2023-05-16T09:20:09;18.10;99.90
9403;DHT22;4741;49.834;10.740;2023-05-16T09:22:37;18.30;99.90
9403;DHT22;4741;49.834;10.740;2023-05-16T09:25:03;18.70;99.90
9403;DHT22;4741;49.834;10.740;2023-05-16T09:27:34;18.80;99.90
9403;DHT22;4741;49.834;10.740;2023-05-16T09:30:00;18.80;99.90
9403;DHT22;4741;49.834;10.740;2023-05-16T09:32:27;18.60;99.90
9403;DHT22;4741;49.834;10.740;2023-05-16T09:34:54;18.60;99.90
9403;DHT22;4741;49.834;10.740;2023-05-16T09:37:23;18.90;99.90
9403;DHT22;4741;49.834;10.740;2023-05-16T09:39:51;19.30;99.90
9403;DHT22;4741;49.834;10.740;2023-05-16T09:42:18;19.80;99.90
9403;DHT22;4741;49.834;10.740;2023-05-16T09:44:45;19.50;99.90
9403;DHT22;4741;49.834;10.740;2023-05-16T09:47:14;20.50;99.90
9403;DHT22;4741;49.834;10.740;2023-05-16T09:49:45;19.60;99.90
9403;DHT22;4741;49.834;10.740;2023-05-16T09:52:12;19.80;99.90
9403;DHT22;4741;49.834;10.740;2023-05-16T09:54:39;20.00;99.90
9403;DHT22;4741;49.834;10.740;2023-05-16T09:57:06;19.90;99.90
9403;DHT22;4741;49.834;10.740;2023-05-16T09:59:36;19.60;99.90
9403;DHT22;4741;49.834;10.740;2023-05-16T10:02:07;19.00;99.90
9403;DHT22;4741;49.834;10.740;2023-05-16T10:04:34;19.40;99.90
9403;DHT22;4741;49.834;10.740;2023-05-16T10:07:02;19.30;99.90
9403;DHT22;4741;49.834;10.740;2023-05-16T10:09:32;20.10;99.90
9403;DHT22;4741;49.834;10.740;2023-05-16T10:12:00;20.20;99.90
9403;DHT22;4741;49.834;10.740;2023-05-16T10:14:33;20.30;99.90
9403;DHT22;4741;49.834;10.740;2023-05-16T10:17:00;20.30;99.90
9403;DHT22;4741;49.834;10.740;2023-05-16T10:19:28;22.00;99.90
9403;DHT22;4741;49.834;10.740;2023-05-16T10:21:57;21.20;99.90
9403;DHT22;4741;49.834;10.740;2023-05-16T10:24:28;21.30;99.90
9403;DHT22;4741;49.834;10.740;2023-05-16T10:26:55;21.50;99.90
9403;DHT22;4741;49.834;10.740;2023-05-16T10:29:22;21.00;99.90
9403;DHT22;4741;49.834;10.740;2023-05-16T10:31:50;20.20;99.90
9403;DHT22;4741;49.834;10.740;2023-05-16T10:34:19;20.70;99.90
9403;DHT22;4741;49.834;10.740;2023-05-16T10:36:46;20.50;99.90
9403;DHT22;4741;49.834;10.740;2023-05-16T10:39:13;21.50;99.90
9403;DHT22;4741;49.834;10.740;2023-05-16T10:41:40;20.30;99.90
9403;DHT22;4741;49.834;10.740;2023-05-16T10:44:14;20.70;99.90
9403;DHT22;4741;49.834;10.740;2023-05-16T10:46:45;19.80;99.90
9403;DHT22;4741;49.834;10.740;2023-05-16T10:49:19;20.00;99.90
9403;DHT22;4741;49.834;10.740;2023-05-16T10:54:37;18.70;99.90
9403;DHT22;4741;49.834;10.740;2023-05-16T10:57:09;18.40;99.90
9403;DHT22;4741;49.834;10.740;2023-05-16T10:59:41;18.40;99.90
9403;DHT22;4741;49.834;10.740;2023-05-16T11:02:27;18.00;99.90
9403;DHT22;4741;49.834;10.740;2023-05-16T11:04:55;17.60;99.90
9403;DHT22;4741;49.834;10.740;2023-05-16T11:07:22;16.90;99.90
9403;DHT22;4741;49.834;10.740;2023-05-16T11:17:13;16.20;99.90
9403;DHT22;4741;49.834;10.740;2023-05-16T11:29:46;16.60;99.90
9403;DHT22;4741;49.834;10.740;2023-05-16T11:32:14;15.80;99.90
9403;DHT22;4741;49.834;10.740;2023-05-16T11:34:44;17.20;99.90
9403;DHT22;4741;49.834;10.740;2023-05-16T11:37:12;17.50;99.90
9403;DHT22;4741;49.834;10.740;2023-05-16T11:39:39;16.60;99.90
9403;DHT22;4741;49.834;10.740;2023-05-16T11:42:06;16.70;99.90
9403;DHT22;4741;49.834;10.740;2023-05-16T11:44:33;16.40;99.90
9403;DHT22;4741;49.834;10.740;2023-05-16T11:46:59;16.00;99.90
9403;DHT22;4741;49.834;10.740;2023-05-16T11:51:55;16.00;99.90
9403;DHT22;4741;49.834;10.740;2023-05-16T11:54:23;15.90;99.90
9403;DHT22;4741;49.834;10.740;2023-05-16T11:56:50;15.30;99.90
9403;DHT22;4741;49.834;10.740;2023-05-16T11:59:17;14.40;99.90
9403;DHT22;4741;49.834;10.740;2023-05-16T12:01:44;16.90;99.90
9403;DHT22;4741;49.834;10.740;2023-05-16T12:04:14;16.20;99.90
9403;DHT22;4741;49.834;10.740;2023-05-16T12:06:41;16.70;99.90
9403;DHT22;4741;49.834;10.740;2023-05-16T12:09:11;16.30;99.90
9403;DHT22;4741;49.834;10.740;2023-05-16T12:11:43;15.40;99.90
9403;DHT22;4741;49.834;10.740;2023-05-16T12:14:10;16.50;99.90
9403;DHT22;4741;49.834;10.740;2023-05-16T12:16:38;17.00;99.90
9403;DHT22;4741;49.834;10.740;2023-05-16T12:19:05;15.30;99.90
9403;DHT22;4741;49.834;10.740;2023-05-16T12:21:32;15.90;99.90
9403;DHT22;4741;49.834;10.740;2023-05-16T12:23:59;16.30;99.90
9403;DHT22;4741;49.834;10.740;2023-05-16T12:26:26;15.50;99.90
9403;DHT22;4741;49.834;10.740;2023-05-16T12:28:58;15.50;99.90
9403;DHT22;4741;49.834;10.740;2023-05-16T12:31:26;15.60;99.90
9403;DHT22;4741;49.834;10.740;2023-05-16T12:33:58;15.30;99.90
9403;DHT22;4741;49.834;10.740;2023-05-16T12:36:25;14.70;99.90
9403;DHT22;4741;49.834;10.740;2023-05-16T12:38:52;15.00;99.90
9403;DHT22;4741;49.834;10.740;2023-05-16T12:43:47;16.10;99.90
9403;DHT22;4741;49.834;10.740;2023-05-16T12:46:14;15.90;99.90
9403;DHT22;4741;49.834;10.740;2023-05-16T12:48:41;15.70;99.90
9403;DHT22;4741;49.834;10.740;2023-05-16T12:51:12;16.40;99.90
9403;DHT22;4741;49.834;10.740;2023-05-16T12:53:46;16.20;99.90
9403;DHT22;4741;49.834;10.740;2023-05-16T12:56:31;16.50;99.90
9403;DHT22;4741;49.834;10.740;2023-05-16T12:58:58;17.10;99.90
9403;DHT22;4741;49.834;10.740;2023-05-16T13:01:24;17.40;99.90
9403;DHT22;4741;49.834;10.740;2023-05-16T13:03:51;17.50;99.90
9403;DHT22;4741;49.834;10.740;2023-05-16T13:06:18;18.00;99.90
9403;DHT22;4741;49.834;10.740;2023-05-16T13:08:45;18.80;99.90
9403;DHT22;4741;49.834;10.740;2023-05-16T13:11:11;19.50;99.90
9403;DHT22;4741;49.834;10.740;2023-05-16T13:13:38;19.90;99.90
9403;DHT22;4741;49.834;10.740;2023-05-16T13:18:32;21.60;99.90
9403;DHT22;4741;49.834;10.740;2023-05-16T13:21:00;21.40;99.90
9403;DHT22;4741;49.834;10.740;2023-05-16T13:25:54;20.20;99.90
9403;DHT22;4741;49.834;10.740;2023-05-16T13:28:21;21.50;99.90
9403;DHT22;4741;49.834;10.740;2023-05-16T13:30:48;20.50;99.90
9403;DHT22;4741;49.834;10.740;2023-05-16T13:33:14;17.70;99.90
9403;DHT22;4741;49.834;10.740;2023-05-16T13:35:42;19.30;99.90
9403;DHT22;4741;49.834;10.740;2023-05-16T13:38:08;19.90;99.90
9403;DHT22;4741;49.834;10.740;2023-05-16T13:40:35;20.50;99.90
9403;DHT22;4741;49.834;10.740;2023-05-16T13:43:02;22.10;99.90
9403;DHT22;4741;49.834;10.740;2023-05-16T13:45:29;20.40;99.90
9403;DHT22;4741;49.834;10.740;2023-05-16T13:47:56;20.90;99.90
9403;DHT22;4741;49.834;10.740;2023-05-16T13:50:23;23.00;99.90
9403;DHT22;4741;49.834;10.740;2023-05-16T13:52:50;20.40;99.90
9403;DHT22;4741;49.834;10.740;2023-05-16T13:55:18;21.10;99.90
9403;DHT22;4741;49.834;10.740;2023-05-16T13:57:45;19.60;99.90
9403;DHT22;4741;49.834;10.740;2023-05-16T14:00:12;18.90;99.90
9403;DHT22;4741;49.834;10.740;2023-05-16T14:02:42;18.20;99.90
9403;DHT22;4741;49.834;10.740;2023-05-16T14:05:09;17.30;99.90
9403;DHT22;4741;49.834;10.740;2023-05-16T14:07:35;17.40;99.90
9403;DHT22;4741;49.834;10.740;2023-05-16T14:10:02;16.40;99.90
9403;DHT22;4741;49.834;10.740;2023-05-16T14:12:29;16.50;99.90
9403;DHT22;4741;49.834;10.740;2023-05-16T14:14:56;16.30;99.90
9403;DHT22;4741;49.834;10.740;2023-05-16T14:17:23;17.00;99.90
9403;DHT22;4741;49.834;10.740;2023-05-16T14:19:49;17.50;99.90
9403;DHT22;4741;49.834;10.740;2023-05-16T14:22:16;18.50;99.90
9403;DHT22;4741;49.834;10.740;2023-05-16T14:24:44;17.10;99.90
9403;DHT22;4741;49.834;10.740;2023-05-16T14:27:11;16.40;99.90
9403;DHT22;4741;49.834;10.740;2023-05-16T14:29:37;16.10;99.90
9403;DHT22;4741;49.834;10.740;2023-05-16T14:32:05;15.80;99.90
9403;DHT22;4741;49.834;10.740;2023-05-16T14:34:32;15.50;99.90
9403;DHT22;4741;49.834;10.740;2023-05-16T14:39:26;15.00;99.90
9403;DHT22;4741;49.834;10.740;2023-05-16T14:41:52;14.80;99.90
9403;DHT22;4741;49.834;10.740;2023-05-16T14:44:20;14.90;99.90
9403;DHT22;4741;49.834;10.740;2023-05-16T14:46:50;15.50;99.90
9403;DHT22;4741;49.834;10.740;2023-05-16T14:49:17;15.10;99.90
9403;DHT22;4741;49.834;10.740;2023-05-16T14:51:43;15.80;99.90
9403;DHT22;4741;49.834;10.740;2023-05-16T14:54:14;15.90;99.90
9403;DHT22;4741;49.834;10.740;2023-05-16T14:56:42;16.50;99.90
9403;DHT22;4741;49.834;10.740;2023-05-16T14:59:09;16.00;99.90
9403;DHT22;4741;49.834;10.740;2023-05-16T15:01:35;15.50;99.90
9403;DHT22;4741;49.834;10.740;2023-05-16T15:04:02;15.70;99.90
9403;DHT22;4741;49.834;10.740;2023-05-16T15:06:29;15.30;99.90
9403;DHT22;4741;49.834;10.740;2023-05-16T15:08:56;16.20;99.90
9403;DHT22;4741;49.834;10.740;2023-05-16T15:11:22;17.00;99.90
9403;DHT22;4741;49.834;10.740;2023-05-16T15:13:49;15.90;99.90
9403;DHT22;4741;49.834;10.740;2023-05-16T15:16:15;16.40;99.90
9403;DHT22;4741;49.834;10.740;2023-05-16T15:18:42;16.90;99.90
9403;DHT22;4741;49.834;10.740;2023-05-16T15:21:09;16.90;99.90
9403;DHT22;4741;49.834;10.740;2023-05-16T15:23:36;17.10;99.90
9403;DHT22;4741;49.834;10.740;2023-05-16T15:26:03;16.60;99.90
9403;DHT22;4741;49.834;10.740;2023-05-16T15:28:29;16.20;99.90
9403;DHT22;4741;49.834;10.740;2023-05-16T15:30:56;16.00;99.90
9403;DHT22;4741;49.834;10.740;2023-05-16T15:33:23;16.40;99.90
9403;DHT22;4741;49.834;10.740;2023-05-16T15:35:50;15.50;99.90
9403;DHT22;4741;49.834;10.740;2023-05-16T15:38:17;15.60;99.90
9403;DHT22;4741;49.834;10.740;2023-05-16T15:40:44;16.30;99.90
9403;DHT22;4741;49.834;10.740;2023-05-16T15:43:11;15.80;99.90
9403;DHT22;4741;49.834;10.740;2023-05-16T15:45:37;16.00;99.90
9403;DHT22;4741;49.834;10.740;2023-05-16T15:48:06;16.50;99.90
9403;DHT22;4741;49.834;10.740;2023-05-16T15:50:32;15.60;99.90
9403;DHT22;4741;49.834;10.740;2023-05-16T15:52:59;15.20;99.90
9403;DHT22;4741;49.834;10.740;2023-05-16T15:55:26;15.30;99.90
9403;DHT22;4741;49.834;10.740;2023-05-16T15:57:54;15.10;99.90
9403;DHT22;4741;49.834;10.740;2023-05-16T16:00:25;15.10;99.90
9403;DHT22;4741;49.834;10.740;2023-05-16T16:02:52;15.20;99.90
9403;DHT22;4741;49.834;10.740;2023-05-16T16:05:19;14.60;99.90
9403;DHT22;4741;49.834;10.740;2023-05-16T16:07:46;14.90;99.90
9403;DHT22;4741;49.834;10.740;2023-05-16T16:10:12;14.80;99.90
9403;DHT22;4741;49.834;10.740;2023-05-16T16:12:41;14.70;99.90
9403;DHT22;4741;49.834;10.740;2023-05-16T16:15:08;14.50;99.90
9403;DHT22;4741;49.834;10.740;2023-05-16T16:17:35;14.60;99.90
9403;DHT22;4741;49.834;10.740;2023-05-16T16:20:02;14.60;99.90
9403;DHT22;4741;49.834;10.740;2023-05-16T16:22:29;14.50;99.90
9403;DHT22;4741;49.834;10.740;2023-05-16T16:24:55;14.50;99.90
9403;DHT22;4741;49.834;10.740;2023-05-16T16:27:22;14.60;99.90
9403;DHT22;4741;49.834;10.740;2023-05-16T16:29:49;14.80;99.90
9403;DHT22;4741;49.834;10.740;2023-05-16T16:32:15;15.00;99.90
9403;DHT22;4741;49.834;10.740;2023-05-16T16:34:42;15.10;99.90
9403;DHT22;4741;49.834;10.740;2023-05-16T16:37:08;15.10;99.90
9403;DHT22;4741;49.834;10.740;2023-05-16T16:39:37;15.90;99.90
9403;DHT22;4741;49.834;10.740;2023-05-16T16:42:07;15.10;99.90
9403;DHT22;4741;49.834;10.740;2023-05-16T16:44:36;15.20;99.90
9403;DHT22;4741;49.834;10.740;2023-05-16T16:47:03;15.30;99.90
9403;DHT22;4741;49.834;10.740;2023-05-16T16:49:30;15.30;99.90
9403;DHT22;4741;49.834;10.740;2023-05-16T16:51:57;15.30;99.90
9403;DHT22;4741;49.834;10.740;2023-05-16T16:54:23;15.20;99.90
9403;DHT22;4741;49.834;10.740;2023-05-16T16:56:50;15.10;99.90
9403;DHT22;4741;49.834;10.740;2023-05-16T16:59:18;15.00;99.90
9403;DHT22;4741;49.834;10.740;2023-05-16T17:01:50;15.20;99.90
9403;DHT22;4741;49.834;10.740;2023-05-16T17:04:16;15.20;99.90